createdAt,value
2019-04-30T16:23:53.519Z,6.20
2019-04-30T16:26:24.123Z,5.80
2019-04-30T16:28:55.370Z,5.42
2019-04-30T16:33:55.968Z,5.83
2019-04-30T16:36:29.004Z,6.12
2019-04-30T16:39:00.355Z,6.08
2019-04-30T16:41:32.412Z,6.10
2019-04-30T16:44:04.314Z,5.85
2019-04-30T16:46:36.240Z,6.25
2019-04-30T16:49:07.562Z,5.95
2019-04-30T16:54:09.705Z,6.05
2019-04-30T16:56:43.046Z,6.20
2019-04-30T16:59:17.082Z,6.45
2019-04-30T17:01:57.459Z,6.22
2019-04-30T17:04:44.576Z,6.50
2019-04-30T17:07:25.626Z,6.40
2019-04-30T17:10:10.517Z,6.40
2019-04-30T17:12:59.323Z,6.80
2019-04-30T17:15:32.518Z,6.83
2019-04-30T17:18:04.863Z,6.83
2019-04-30T17:20:38.577Z,6.80
2019-04-30T17:23:09.915Z,7.28
2019-04-30T17:25:42.150Z,6.37
2019-04-30T17:28:15.399Z,6.53
2019-04-30T17:30:49.177Z,6.78
2019-04-30T17:33:21.199Z,6.95
2019-04-30T17:35:53.317Z,6.40
2019-04-30T17:38:25.110Z,7.33
2019-04-30T17:40:57.344Z,7.20
2019-04-30T17:43:29.440Z,7.28
2019-04-30T17:46:04.162Z,6.67
2019-04-30T17:48:36.042Z,6.85
2019-04-30T17:51:09.446Z,6.62
2019-04-30T17:54:00.074Z,7.20
2019-04-30T17:56:32.238Z,6.53
2019-04-30T17:59:04.265Z,6.80
2019-04-30T18:01:40.146Z,6.30
2019-04-30T18:04:12.506Z,7.60
2019-04-30T18:06:44.835Z,6.80
2019-04-30T18:09:19.100Z,6.78
2019-04-30T18:11:51.352Z,6.50
2019-04-30T18:14:24.260Z,6.72
2019-04-30T18:16:56.605Z,6.95
2019-04-30T18:19:38.614Z,6.60
2019-04-30T18:22:15.909Z,6.80
2019-04-30T18:25:02.394Z,7.37
2019-04-30T18:27:45.994Z,6.50
2019-04-30T18:30:15.240Z,6.85
2019-04-30T18:32:48.617Z,6.78
2019-04-30T18:35:20.966Z,6.70
2019-04-30T18:37:53.312Z,7.00
2019-04-30T18:40:25.536Z,7.35
2019-04-30T18:42:59.341Z,7.33
2019-04-30T18:45:31.793Z,7.15
2019-04-30T18:48:05.829Z,7.83
2019-04-30T18:50:38.242Z,7.05
2019-04-30T18:53:18.561Z,6.35
2019-04-30T18:55:51.914Z,7.80
2019-04-30T18:58:37.582Z,7.15
2019-04-30T19:00:59.306Z,7.10
2019-04-30T19:03:31.785Z,8.20
2019-04-30T19:06:09.848Z,7.72
2019-04-30T19:08:51.723Z,7.80
2019-04-30T19:11:33.075Z,7.90
2019-04-30T19:14:12.617Z,7.72
2019-04-30T19:17:02.356Z,7.55
2019-04-30T19:20:02.723Z,8.23
2019-04-30T19:22:35.286Z,7.37
2019-04-30T19:25:08.958Z,7.62
2019-04-30T19:27:41.387Z,9.25
2019-04-30T19:30:14.079Z,9.38
2019-04-30T19:32:49.293Z,8.25
2019-04-30T19:35:21.896Z,10.18
2019-04-30T19:37:54.231Z,9.60
2019-04-30T19:40:28.546Z,9.28
2019-04-30T19:43:03.018Z,9.68
2019-04-30T19:45:35.551Z,9.93
2019-04-30T19:48:11.728Z,10.60
2019-04-30T19:50:44.184Z,11.45
2019-04-30T19:53:21.809Z,10.93
2019-04-30T19:55:52.657Z,10.75
2019-04-30T19:58:37.737Z,10.40
2019-04-30T20:01:03.519Z,10.40
2019-04-30T20:03:36.836Z,10.23
2019-04-30T20:06:09.365Z,11.08
2019-04-30T20:08:41.798Z,11.48
2019-04-30T20:11:14.295Z,11.97
2019-04-30T20:13:48.945Z,11.93
2019-04-30T20:16:24.112Z,11.95
2019-04-30T20:18:59.213Z,13.05
2019-04-30T20:21:45.604Z,12.73
2019-04-30T20:24:07.058Z,13.20
2019-04-30T20:26:40.579Z,13.10
2019-04-30T20:29:13.479Z,13.58
2019-04-30T20:31:46.002Z,13.08
2019-04-30T20:34:19.221Z,13.83
2019-04-30T20:36:51.752Z,13.48
2019-04-30T20:39:42.407Z,13.55
2019-04-30T20:42:17.162Z,14.00
2019-04-30T20:44:49.387Z,13.72
2019-04-30T20:47:23.419Z,13.53
2019-04-30T20:49:55.731Z,15.03
2019-04-30T20:52:38.870Z,13.65
2019-04-30T20:55:12.043Z,13.75
2019-04-30T20:57:44.652Z,14.25
2019-04-30T21:00:18.895Z,14.78
2019-04-30T21:02:52.072Z,14.13
2019-04-30T21:05:24.423Z,14.05
2019-04-30T21:07:56.864Z,14.75
2019-04-30T21:10:29.715Z,15.83
2019-04-30T21:13:02.744Z,15.38
2019-04-30T21:15:35.032Z,15.08
2019-04-30T21:18:09.368Z,16.67
2019-04-30T21:20:42.440Z,16.17
2019-04-30T21:23:14.883Z,15.40
2019-04-30T21:25:48.998Z,16.00
2019-04-30T21:28:21.336Z,16.23
2019-04-30T21:30:53.630Z,15.13
2019-04-30T21:33:33.351Z,15.80
2019-04-30T21:36:11.594Z,16.55
2019-04-30T21:38:43.919Z,16.82
2019-04-30T21:41:16.167Z,17.57
2019-04-30T21:43:48.623Z,17.40
2019-04-30T21:46:20.743Z,16.23
2019-04-30T21:48:53.016Z,17.42
2019-04-30T21:51:25.269Z,17.40
2019-04-30T21:53:57.608Z,17.40
2019-04-30T21:56:29.881Z,16.32
2019-04-30T21:59:02.136Z,16.27
2019-04-30T22:01:34.376Z,16.65
2019-04-30T22:04:06.675Z,16.32
2019-04-30T22:06:39.463Z,17.40
2019-04-30T22:09:12.960Z,16.23
2019-04-30T22:11:44.947Z,16.40
2019-04-30T22:14:20.398Z,16.48
2019-04-30T22:16:52.471Z,16.05
2019-04-30T22:19:24.614Z,16.57
2019-04-30T22:21:56.095Z,16.23
2019-04-30T22:24:28.306Z,16.25
2019-04-30T22:27:01.078Z,15.72
2019-04-30T22:29:39.225Z,16.42
2019-04-30T22:32:04.512Z,16.42
2019-04-30T22:34:35.801Z,16.10
2019-04-30T22:39:43.980Z,15.90
2019-04-30T22:42:31.147Z,15.80
2019-04-30T22:45:01.991Z,16.67
2019-04-30T22:47:31.848Z,16.80
2019-04-30T22:50:01.706Z,18.15
2019-04-30T22:52:31.545Z,19.07
2019-04-30T22:55:01.306Z,19.62
2019-04-30T22:57:31.115Z,19.32
2019-04-30T23:00:00.906Z,21.82
2019-04-30T23:02:39.949Z,21.40
2019-04-30T23:05:11.306Z,23.67
2019-04-30T23:10:09.851Z,22.15
2019-04-30T23:12:39.693Z,23.67
2019-04-30T23:15:09.750Z,24.30
2019-04-30T23:17:39.571Z,25.40
2019-04-30T23:20:09.961Z,26.15
2019-04-30T23:22:39.763Z,26.67
2019-04-30T23:25:09.777Z,25.62
2019-04-30T23:27:39.592Z,26.25
2019-04-30T23:30:09.594Z,27.07
2019-04-30T23:32:39.398Z,28.07
2019-04-30T23:35:09.376Z,27.37
2019-04-30T23:37:39.212Z,26.73
2019-04-30T23:40:26.887Z,26.15
2019-04-30T23:42:56.916Z,26.25
2019-04-30T23:45:27.233Z,26.48
2019-04-30T23:47:57.080Z,27.22
2019-04-30T23:50:26.894Z,25.68
2019-04-30T23:52:56.679Z,26.75
2019-04-30T23:55:26.478Z,27.58
2019-04-30T23:57:56.255Z,26.50
